Time;durP1;ratioP1;P1;durP2;ratioP2;P2;SDS_P1;SDS_P2;PMS_P1;PMS_P2;Temp;Humidity;BMP_temperature;BMP_pressure;BME280_temperature;BME280_humidity;BME280_pressure;Samples;Min_cycle;Max_cycle;Signal;HPM_P1;HPM_P2
2021/04/18 00:02:16;;;;;;;3.60;2.95;;;3.90;99.90;;;;;;5031357;28;20064;-76
2021/04/18 00:04:42;;;;;;;4.28;2.55;;;3.90;99.90;;;;;;5032230;28;20092;-75
2021/04/18 00:07:07;;;;;;;3.55;2.30;;;3.90;99.90;;;;;;5031459;28;20075;-75
2021/04/18 00:09:33;;;;;;;3.78;2.63;;;3.90;99.90;;;;;;5041074;28;20124;-75
2021/04/18 00:11:59;;;;;;;3.38;2.75;;;3.90;99.90;;;;;;5050760;28;20434;-75
2021/04/18 00:14:25;;;;;;;3.75;2.75;;;3.90;99.90;;;;;;5050609;28;20025;-75
2021/04/18 00:16:53;;;;;;;6.03;3.03;;;3.90;99.90;;;;;;5051032;28;20091;-75
2021/04/18 00:19:19;;;;;;;4.00;3.00;;;3.90;99.90;;;;;;5051676;28;20044;-75
2021/04/18 00:21:44;;;;;;;5.72;2.92;;;3.80;99.90;;;;;;5051040;28;20574;-75
2021/04/18 00:24:10;;;;;;;4.35;3.35;;;3.80;99.90;;;;;;5045416;28;20365;-75
2021/04/18 00:26:36;;;;;;;7.47;3.88;;;3.80;99.90;;;;;;5032844;28;20497;-73
2021/04/18 00:29:02;;;;;;;4.80;3.67;;;3.80;99.90;;;;;;5051267;28;20047;-73
2021/04/18 00:31:28;;;;;;;5.80;3.33;;;3.80;99.90;;;;;;5050553;28;20035;-73
2021/04/18 00:33:54;;;;;;;5.15;3.65;;;3.80;99.90;;;;;;5050156;28;20037;-73
2021/04/18 00:36:20;;;;;;;5.10;3.90;;;3.80;99.90;;;;;;5050716;28;20120;-73
2021/04/18 00:38:45;;;;;;;9.63;3.80;;;3.80;99.90;;;;;;5051151;28;20033;-73
2021/04/18 00:41:11;;;;;;;5.78;4.13;;;3.80;99.90;;;;;;5050266;28;20036;-73
2021/04/18 00:43:42;;;;;;;5.68;4.05;;;3.80;99.90;;;;;;5050279;28;20506;-73
2021/04/18 00:46:10;;;;;;;7.95;4.40;;;3.80;99.90;;;;;;5049265;28;20032;-72
2021/04/18 00:48:42;;;;;;;8.07;3.92;;;3.80;99.90;;;;;;5028257;28;20106;-73
2021/04/18 00:51:12;;;;;;;6.15;4.22;;;3.80;99.90;;;;;;5048686;28;20040;-73
2021/04/18 00:53:39;;;;;;;5.28;3.60;;;3.70;99.90;;;;;;5049762;28;20040;-73
2021/04/18 00:56:05;;;;;;;5.15;3.65;;;3.70;99.90;;;;;;5032791;28;20032;-73
2021/04/18 00:58:31;;;;;;;8.18;4.30;;;3.70;99.90;;;;;;5048718;28;20511;-73
2021/04/18 01:00:57;;;;;;;5.95;4.00;;;3.70;99.90;;;;;;5047433;28;20033;-73
2021/04/18 01:03:22;;;;;;;7.75;4.70;;;3.70;99.90;;;;;;5049480;28;20032;-73
2021/04/18 01:05:48;;;;;;;6.28;4.20;;;3.70;99.90;;;;;;5049332;28;20044;-73
2021/04/18 01:08:14;;;;;;;5.88;3.70;;;3.70;99.90;;;;;;5032250;28;20036;-73
2021/04/18 01:10:40;;;;;;;6.03;4.30;;;3.70;99.90;;;;;;5049501;28;20192;-73
2021/04/18 01:13:06;;;;;;;6.15;3.97;;;3.70;99.90;;;;;;5032886;28;20064;-72
2021/04/18 01:15:33;;;;;;;8.63;4.13;;;3.70;99.90;;;;;;5050618;28;20469;-73
2021/04/18 01:17:59;;;;;;;7.30;4.47;;;3.70;99.90;;;;;;5032040;28;20033;-72
2021/04/18 01:20:25;;;;;;;4.43;3.60;;;3.80;99.90;;;;;;5048700;28;20506;-73
2021/04/18 01:23:29;;;;;;;5.82;4.10;;;3.80;99.90;;;;;;5049569;28;20041;-73
2021/04/18 01:26:31;;;;;;;6.70;4.15;;;3.70;99.90;;;;;;5047397;28;20104;-73
2021/04/18 01:28:57;;;;;;;5.93;4.28;;;3.70;99.90;;;;;;5050032;28;20087;-72
2021/04/18 01:31:23;;;;;;;5.43;4.00;;;3.70;99.90;;;;;;5048031;28;20044;-72
2021/04/18 01:33:49;;;;;;;5.60;3.92;;;3.70;99.90;;;;;;5050486;28;20048;-73
2021/04/18 01:36:15;;;;;;;6.05;4.18;;;3.70;99.90;;;;;;5049070;28;20377;-73
2021/04/18 01:38:41;;;;;;;6.47;4.45;;;3.80;99.90;;;;;;5048759;28;20039;-73
2021/04/18 01:41:09;;;;;;;7.05;4.85;;;3.70;99.90;;;;;;5048119;28;20059;-73
2021/04/18 01:43:38;;;;;;;6.47;4.38;;;3.80;99.90;;;;;;5049043;28;20043;-73
2021/04/18 01:46:04;;;;;;;5.95;4.22;;;3.70;99.90;;;;;;5048679;28;20032;-73
2021/04/18 01:48:31;;;;;;;4.72;3.58;;;3.70;99.90;;;;;;5048552;28;20024;-73
2021/04/18 01:51:02;;;;;;;8.18;3.88;;;3.70;99.90;;;;;;5047957;28;20434;-73
2021/04/18 01:53:28;;;;;;;8.75;5.22;;;3.70;99.90;;;;;;5048973;28;20040;-75
2021/04/18 01:55:55;;;;;;;8.50;5.13;;;3.70;99.90;;;;;;5048752;28;20037;-75
2021/04/18 01:58:21;;;;;;;9.23;5.07;;;3.70;99.90;;;;;;5049506;28;20033;-76
2021/04/18 02:01:09;;;;;;;7.07;4.85;;;3.70;99.90;;;;;;5047834;28;20694;-75
2021/04/18 02:03:38;;;;;;;7.03;4.47;;;3.70;99.90;;;;;;5050126;28;20060;-75
2021/04/18 02:06:06;;;;;;;4.82;3.70;;;3.70;99.90;;;;;;5030468;28;20511;-75
2021/04/18 02:08:39;;;;;;;8.90;4.32;;;3.70;99.90;;;;;;5033009;28;20033;-75
2021/04/18 02:11:06;;;;;;;5.47;4.22;;;3.70;99.90;;;;;;5047781;28;20377;-75
2021/04/18 02:13:34;;;;;;;7.35;4.38;;;3.70;99.90;;;;;;5049063;28;20403;-75
2021/04/18 02:16:12;;;;;;;6.63;4.38;;;3.70;99.90;;;;;;5047964;28;20036;-75
2021/04/18 02:18:48;;;;;;;6.22;4.57;;;3.70;99.90;;;;;;5048613;28;20065;-75
2021/04/18 02:21:15;;;;;;;6.28;4.70;;;3.70;99.90;;;;;;5047825;28;20040;-75
2021/04/18 02:23:41;;;;;;;6.78;4.32;;;3.70;99.90;;;;;;5049850;28;20518;-76
2021/04/18 02:26:06;;;;;;;7.78;5.05;;;3.70;99.90;;;;;;5048591;28;20029;-72
2021/04/18 02:28:33;;;;;;;8.73;4.53;;;3.70;99.90;;;;;;5048766;28;20041;-73
2021/04/18 02:31:02;;;;;;;5.82;4.35;;;3.70;99.90;;;;;;5047399;28;20065;-73
2021/04/18 02:33:41;;;;;;;7.13;4.85;;;3.70;99.90;;;;;;5033671;28;20025;-72
2021/04/18 02:36:07;;;;;;;7.97;5.22;;;3.70;99.90;;;;;;5048376;28;20036;-73
2021/04/18 02:38:33;;;;;;;6.15;4.55;;;3.70;99.90;;;;;;5049672;28;20069;-73
2021/04/18 02:40:58;;;;;;;7.32;4.78;;;3.70;99.90;;;;;;5048899;28;20102;-73
2021/04/18 02:43:26;;;;;;;6.75;4.90;;;3.70;99.90;;;;;;5049679;28;20041;-73
2021/04/18 02:45:53;;;;;;;5.30;4.13;;;3.70;99.90;;;;;;5047962;28;20492;-73
2021/04/18 02:48:19;;;;;;;8.57;4.93;;;3.70;99.90;;;;;;5031319;28;20033;-73
2021/04/18 02:50:44;;;;;;;7.47;5.03;;;3.70;99.90;;;;;;5047754;28;20484;-73
2021/04/18 02:53:11;;;;;;;7.60;4.80;;;3.70;99.90;;;;;;5049621;28;20028;-73
2021/04/18 02:55:37;;;;;;;7.88;4.93;;;3.70;99.90;;;;;;5048266;28;20121;-73
2021/04/18 02:58:21;;;;;;;6.30;4.70;;;3.70;99.90;;;;;;5048779;28;20107;-73
2021/04/18 03:00:50;;;;;;;6.53;5.00;;;3.70;99.90;;;;;;5048480;28;20041;-73
2021/04/18 03:03:16;;;;;;;8.20;5.55;;;3.70;99.90;;;;;;5049376;28;20029;-73
2021/04/18 03:05:44;;;;;;;7.53;5.15;;;3.70;99.90;;;;;;5051764;28;20033;-73
2021/04/18 03:08:10;;;;;;;6.68;5.00;;;3.70;99.90;;;;;;5051094;28;20087;-73
2021/04/18 03:10:36;;;;;;;8.15;5.70;;;3.70;99.90;;;;;;5047289;28;20499;-73
2021/04/18 03:13:03;;;;;;;9.10;5.28;;;3.70;99.90;;;;;;5031810;28;20084;-73
2021/04/18 03:15:32;;;;;;;5.32;4.28;;;3.70;99.90;;;;;;5048064;28;20076;-72
2021/04/18 03:18:01;;;;;;;8.40;5.57;;;3.70;99.90;;;;;;5047622;28;20101;-73
2021/04/18 03:20:28;;;;;;;8.60;5.10;;;3.70;99.90;;;;;;5047666;28;20087;-73
2021/04/18 03:22:57;;;;;;;7.65;5.20;;;3.70;99.90;;;;;;5015662;28;20404;-73
2021/04/18 03:25:23;;;;;;;8.55;5.47;;;3.70;99.90;;;;;;5047970;28;20034;-73
2021/04/18 03:27:50;;;;;;;7.90;5.35;;;3.70;99.90;;;;;;5047535;28;20476;-73
2021/04/18 03:30:32;;;;;;;6.80;4.60;;;3.70;99.90;;;;;;5046752;28;20047;-73
2021/04/18 03:33:00;;;;;;;6.88;4.70;;;3.70;99.90;;;;;;5031394;28;20534;-73
2021/04/18 03:35:27;;;;;;;11.45;5.13;;;3.70;99.90;;;;;;5047877;28;20033;-73
2021/04/18 03:37:54;;;;;;;9.02;5.65;;;3.70;99.90;;;;;;5063073;28;20037;-73
2021/04/18 03:40:20;;;;;;;7.45;5.40;;;3.70;99.90;;;;;;5051004;28;20035;-73
2021/04/18 03:42:47;;;;;;;8.30;5.18;;;3.70;99.90;;;;;;5034191;28;20025;-73
2021/04/18 03:45:16;;;;;;;7.03;4.90;;;3.70;99.90;;;;;;5050902;28;20029;-73
2021/04/18 03:47:45;;;;;;;8.60;5.30;;;3.70;99.90;;;;;;5050329;28;20037;-73
2021/04/18 03:50:11;;;;;;;6.28;4.88;;;3.70;99.90;;;;;;5050899;28;20048;-73
2021/04/18 03:52:55;;;;;;;8.85;5.28;;;3.70;99.90;;;;;;5051067;28;20087;-73
2021/04/18 03:55:24;;;;;;;8.48;5.00;;;3.70;99.90;;;;;;5049194;28;20029;-73
2021/04/18 03:57:50;;;;;;;7.85;4.95;;;3.70;99.90;;;;;;5049997;28;20054;-73
2021/04/18 04:00:17;;;;;;;8.85;5.32;;;3.70;99.90;;;;;;5051176;28;20090;-72
2021/04/18 04:02:43;;;;;;;6.75;4.85;;;3.70;99.90;;;;;;5051526;28;20041;-73
2021/04/18 04:05:12;;;;;;;7.68;5.05;;;3.80;99.90;;;;;;5050582;28;20029;-73
2021/04/18 04:07:39;;;;;;;10.77;5.78;;;3.70;99.90;;;;;;5033391;28;20040;-73
2021/04/18 04:10:06;;;;;;;12.10;6.22;;;3.70;99.90;;;;;;5041825;28;20060;-73
2021/04/18 04:12:34;;;;;;;9.90;6.38;;;3.60;99.90;;;;;;5048310;28;20051;-72
2021/04/18 04:15:00;;;;;;;7.82;5.10;;;3.60;99.90;;;;;;5049845;28;20025;-73
2021/04/18 04:17:26;;;;;;;8.23;5.75;;;3.60;99.90;;;;;;5049554;28;20550;-72
2021/04/18 04:20:13;;;;;;;6.85;5.05;;;3.60;99.90;;;;;;5050126;28;20033;-73
2021/04/18 04:23:11;;;;;;;8.32;5.15;;;3.60;99.90;;;;;;5032253;28;20443;-73
2021/04/18 04:25:37;;;;;;;6.47;4.97;;;3.60;99.90;;;;;;5030328;28;20029;-73
2021/04/18 04:28:03;;;;;;;8.27;5.20;;;3.60;99.90;;;;;;5030568;28;20033;-73
2021/04/18 04:30:29;;;;;;;6.55;4.90;;;3.70;99.90;;;;;;5030798;28;20041;-73
2021/04/18 04:32:54;;;;;;;7.03;4.85;;;3.70;99.90;;;;;;5013741;28;20048;-73
2021/04/18 04:35:20;;;;;;;7.43;5.18;;;3.70;99.90;;;;;;5031351;28;20118;-73
2021/04/18 04:37:46;;;;;;;7.28;5.03;;;3.70;99.90;;;;;;5030671;28;20034;-73
2021/04/18 04:40:13;;;;;;;6.28;4.57;;;3.70;99.90;;;;;;5031364;28;20079;-72
2021/04/18 04:42:38;;;;;;;7.03;4.50;;;3.70;99.90;;;;;;5030491;28;20508;-73
2021/04/18 04:45:05;;;;;;;6.35;4.28;;;3.70;99.90;;;;;;5031216;28;20026;-73
2021/04/18 04:47:31;;;;;;;7.82;4.50;;;3.70;99.90;;;;;;5030434;28;20025;-73
2021/04/18 04:49:57;;;;;;;6.00;4.45;;;3.70;99.90;;;;;;5031256;28;20044;-73
2021/04/18 04:52:23;;;;;;;6.35;4.40;;;3.80;99.90;;;;;;5030287;28;20026;-73
2021/04/18 04:54:49;;;;;;;6.43;4.35;;;3.80;99.90;;;;;;5031174;28;20049;-73
2021/04/18 04:57:14;;;;;;;8.45;4.82;;;3.80;99.90;;;;;;5029980;28;20840;-73
2021/04/18 04:59:40;;;;;;;7.85;4.43;;;3.80;99.90;;;;;;5030938;28;20022;-73
2021/04/18 05:02:06;;;;;;;7.03;3.97;;;3.80;99.90;;;;;;5046606;28;20025;-73
2021/04/18 05:04:32;;;;;;;8.93;4.68;;;3.90;99.90;;;;;;5049449;28;20040;-73
2021/04/18 05:06:59;;;;;;;9.93;5.53;;;3.90;99.90;;;;;;5048684;28;20033;-73
2021/04/18 05:09:25;;;;;;;5.70;3.75;;;3.90;99.90;;;;;;5050686;28;20033;-73
2021/04/18 05:11:50;;;;;;;6.57;4.47;;;3.90;99.90;;;;;;5049675;28;20511;-73
2021/04/18 05:14:16;;;;;;;6.75;4.40;;;3.90;99.90;;;;;;5048666;28;20082;-73
2021/04/18 05:16:42;;;;;;;7.22;4.35;;;3.90;99.90;;;;;;5048148;28;20048;-73
2021/04/18 05:19:07;;;;;;;7.97;4.90;;;4.00;99.90;;;;;;5045763;28;20068;-73
2021/04/18 05:21:33;;;;;;;10.32;5.45;;;4.00;99.90;;;;;;5029955;28;20124;-73
2021/04/18 05:23:59;;;;;;;9.57;6.32;;;4.00;99.90;;;;;;5030654;28;20033;-73
2021/04/18 05:26:24;;;;;;;9.25;5.93;;;4.00;99.90;;;;;;5028777;28;20039;-73
2021/04/18 05:28:52;;;;;;;8.00;5.20;;;4.10;99.90;;;;;;5030656;28;20079;-73
2021/04/18 05:31:18;;;;;;;10.45;6.15;;;4.00;99.90;;;;;;5028417;28;20415;-72
2021/04/18 05:33:44;;;;;;;11.02;6.60;;;4.10;99.90;;;;;;5029107;28;20128;-72
2021/04/18 05:36:11;;;;;;;8.55;5.85;;;4.10;99.90;;;;;;5029610;28;20034;-73
2021/04/18 05:38:36;;;;;;;9.90;6.22;;;4.10;99.90;;;;;;5029105;28;20439;-73
2021/04/18 05:41:02;;;;;;;12.63;6.88;;;4.20;99.90;;;;;;5029515;28;20021;-73
2021/04/18 05:43:28;;;;;;;9.07;6.13;;;4.30;99.90;;;;;;5030338;28;20388;-73
2021/04/18 05:45:54;;;;;;;8.93;6.07;;;4.30;99.90;;;;;;5032841;28;20028;-73
2021/04/18 05:48:20;;;;;;;9.80;6.25;;;4.30;99.90;;;;;;5049273;28;20032;-73
2021/04/18 05:50:45;;;;;;;11.50;6.88;;;4.40;99.90;;;;;;5048401;28;20041;-73
2021/04/18 05:53:12;;;;;;;11.63;7.03;;;4.40;99.90;;;;;;5032053;28;20104;-73
2021/04/18 05:55:37;;;;;;;10.45;6.97;;;4.50;99.90;;;;;;5048479;28;21102;-73
2021/04/18 05:58:07;;;;;;;13.32;8.02;;;4.60;99.90;;;;;;5045465;28;20044;-73
2021/04/18 06:00:33;;;;;;;13.32;8.23;;;4.60;99.90;;;;;;5047131;28;20029;-73
2021/04/18 06:02:59;;;;;;;13.00;7.93;;;4.70;99.90;;;;;;5047474;28;20037;-73
2021/04/18 06:05:25;;;;;;;15.82;9.00;;;4.70;99.90;;;;;;5049639;28;20074;-73
2021/04/18 06:07:51;;;;;;;12.88;8.55;;;4.60;99.90;;;;;;5048973;28;20037;-73
2021/04/18 06:10:17;;;;;;;14.65;8.13;;;4.60;99.90;;;;;;5049073;28;20032;-72
2021/04/18 06:12:43;;;;;;;10.68;6.82;;;4.60;99.90;;;;;;5049009;28;20025;-73
2021/04/18 06:15:09;;;;;;;11.27;7.50;;;4.60;99.90;;;;;;5037946;28;20543;-73
2021/04/18 06:17:35;;;;;;;11.25;7.40;;;4.70;99.90;;;;;;5047807;28;20078;-73
2021/04/18 06:20:01;;;;;;;11.50;7.68;;;4.70;99.90;;;;;;5048553;28;20033;-73
2021/04/18 06:22:27;;;;;;;11.93;7.65;;;4.70;99.90;;;;;;5046954;28;20365;-72
2021/04/18 06:24:53;;;;;;;12.32;7.78;;;4.80;99.90;;;;;;5047931;28;20037;-72
2021/04/18 06:27:19;;;;;;;12.65;8.05;;;4.80;99.90;;;;;;5048637;28;20503;-72
2021/04/18 06:29:45;;;;;;;11.65;7.25;;;4.80;99.90;;;;;;5044341;28;20384;-72
2021/04/18 06:32:10;;;;;;;10.30;7.18;;;4.90;99.90;;;;;;5047400;28;20063;-73
2021/04/18 06:34:36;;;;;;;14.07;7.28;;;4.90;99.90;;;;;;5048177;28;20466;-73
2021/04/18 06:37:02;;;;;;;11.65;7.32;;;4.90;99.90;;;;;;5039670;28;20115;-73
2021/04/18 06:39:28;;;;;;;12.15;8.00;;;5.00;99.90;;;;;;5053077;28;20040;-73
2021/04/18 06:41:58;;;;;;;10.77;7.13;;;5.00;99.90;;;;;;5052446;28;20116;-73
2021/04/18 06:44:24;;;;;;;10.88;7.05;;;4.90;99.90;;;;;;5053523;28;20119;-73
2021/04/18 06:46:51;;;;;;;12.05;7.20;;;4.90;99.90;;;;;;5052681;28;20112;-72
2021/04/18 06:49:17;;;;;;;12.40;7.57;;;4.90;99.90;;;;;;5052298;28;20041;-73
2021/04/18 06:51:47;;;;;;;15.05;8.07;;;4.90;99.90;;;;;;5051292;28;20029;-73
2021/04/18 06:54:13;;;;;;;10.02;7.05;;;4.90;99.90;;;;;;5053413;28;20037;-72
2021/04/18 06:56:39;;;;;;;13.57;8.23;;;4.80;99.90;;;;;;5052265;28;20044;-73
2021/04/18 06:59:04;;;;;;;16.58;11.27;;;4.90;99.90;;;;;;5053257;28;20040;-73
2021/04/18 07:01:31;;;;;;;14.88;10.02;;;4.80;99.90;;;;;;5031026;28;20044;-73
2021/04/18 07:04:22;;;;;;;18.58;11.55;;;4.70;99.90;;;;;;5033236;28;20086;-73
2021/04/18 07:06:54;;;;;;;14.02;8.85;;;4.60;99.90;;;;;;5031288;28;20056;-72
2021/04/18 07:09:24;;;;;;;12.45;8.80;;;4.50;99.90;;;;;;5033941;28;20043;-73
2021/04/18 07:11:59;;;;;;;11.45;8.07;;;4.50;99.90;;;;;;5051641;28;20100;-73
2021/04/18 07:14:26;;;;;;;11.95;8.38;;;4.50;99.90;;;;;;5051840;28;20029;-74
2021/04/18 07:17:12;;;;;;;14.27;8.80;;;4.50;99.90;;;;;;5050538;28;20028;-73
2021/04/18 07:19:40;;;;;;;13.50;9.07;;;4.50;99.90;;;;;;5051791;28;20399;-73
2021/04/18 07:22:07;;;;;;;11.73;8.27;;;4.60;99.90;;;;;;5051732;28;20033;-73
2021/04/18 07:24:46;;;;;;;13.32;8.88;;;4.70;99.90;;;;;;5052504;28;20024;-73
2021/04/18 07:27:12;;;;;;;14.93;9.60;;;4.80;99.90;;;;;;5050751;28;20040;-74
2021/04/18 07:29:38;;;;;;;16.65;9.90;;;5.00;99.90;;;;;;5051355;28;20033;-74
2021/04/18 07:32:19;;;;;;;18.98;9.88;;;5.10;99.90;;;;;;5051135;28;20021;-73
2021/04/18 07:34:45;;;;;;;15.32;10.10;;;5.20;99.90;;;;;;5050063;28;20033;-73
2021/04/18 07:37:13;;;;;;;18.65;11.05;;;5.40;99.90;;;;;;5048557;28;20021;-73
2021/04/18 07:39:44;;;;;;;17.67;10.95;;;5.60;99.90;;;;;;5050908;28;20020;-73
2021/04/18 07:42:29;;;;;;;21.98;13.45;;;5.70;99.90;;;;;;5045822;28;20167;-74
2021/04/18 07:44:57;;;;;;;18.85;11.02;;;5.90;99.90;;;;;;5047175;28;20034;-72
2021/04/18 07:47:24;;;;;;;19.42;12.07;;;5.90;99.90;;;;;;5050957;28;20029;-73
2021/04/18 07:49:51;;;;;;;23.15;12.82;;;6.00;99.90;;;;;;5041828;28;20078;-74
2021/04/18 07:52:18;;;;;;;18.35;11.95;;;6.10;99.90;;;;;;5044829;28;20033;-74
2021/04/18 07:54:44;;;;;;;24.90;14.52;;;6.20;99.90;;;;;;5046205;28;20029;-74
2021/04/18 07:57:10;;;;;;;23.48;14.55;;;6.40;99.90;;;;;;5046636;28;20365;-74
2021/04/18 07:59:38;;;;;;;26.92;14.40;;;6.50;99.90;;;;;;5050568;28;20048;-75
2021/04/18 08:02:04;;;;;;;22.88;14.50;;;6.60;99.90;;;;;;5046795;28;20040;-73
2021/04/18 08:04:32;;;;;;;27.70;14.95;;;6.70;99.90;;;;;;5044491;28;20069;-74
2021/04/18 08:07:01;;;;;;;23.67;14.48;;;6.90;99.90;;;;;;5046197;28;20567;-74
2021/04/18 08:09:26;;;;;;;24.13;14.95;;;7.10;99.90;;;;;;5043569;28;20058;-74
2021/04/18 08:12:18;;;;;;;23.15;13.82;;;7.40;99.90;;;;;;5050472;28;20112;-74
2021/04/18 08:14:45;;;;;;;21.35;14.30;;;7.60;99.90;;;;;;5036813;28;20086;-74
2021/04/18 08:17:17;;;;;;;22.90;13.80;;;7.90;99.90;;;;;;5048165;28;20517;-74
2021/04/18 08:20:00;;;;;;;25.75;15.40;;;8.20;99.90;;;;;;5041272;28;20082;-74
2021/04/18 08:23:05;;;;;;;22.88;13.88;;;8.50;99.90;;;;;;5047948;28;20037;-74
2021/04/18 08:25:33;;;;;;;19.10;12.95;;;8.70;99.90;;;;;;5042273;28;20498;-73
2021/04/18 08:28:08;;;;;;;21.38;12.77;;;8.90;99.90;;;;;;5047102;28;20038;-74
2021/04/18 08:31:09;;;;;;;20.75;11.80;;;8.90;99.90;;;;;;5045913;28;20393;-74
2021/04/18 08:33:38;;;;;;;20.13;12.65;;;9.10;99.90;;;;;;5006712;28;20033;-73
2021/04/18 08:36:19;;;;;;;21.75;13.13;;;9.20;99.90;;;;;;5033548;28;20572;-73
2021/04/18 08:38:48;;;;;;;19.65;12.75;;;9.30;99.90;;;;;;5047946;28;20514;-73
2021/04/18 08:41:15;;;;;;;22.50;12.55;;;9.40;99.90;;;;;;5045966;28;20033;-73
2021/04/18 08:43:45;;;;;;;19.30;12.18;;;9.60;99.90;;;;;;5048019;28;20036;-74
2021/04/18 08:46:11;;;;;;;22.40;12.73;;;9.70;99.90;;;;;;5047999;28;20017;-73
2021/04/18 08:48:37;;;;;;;18.73;12.48;;;9.90;99.90;;;;;;5048142;28;20460;-74
2021/04/18 08:51:05;;;;;;;20.50;13.07;;;10.20;99.90;;;;;;5048143;28;20029;-73
2021/04/18 08:53:54;;;;;;;18.80;10.82;;;10.40;99.90;;;;;;5047110;28;20407;-74
2021/04/18 08:56:20;;;;;;;16.08;10.52;;;10.40;99.90;;;;;;5048842;28;20033;-74
2021/04/18 08:58:46;;;;;;;16.00;9.77;;;10.40;99.90;;;;;;5032278;28;20032;-74
2021/04/18 09:01:14;;;;;;;15.07;10.35;;;10.30;99.90;;;;;;5048345;28;20036;-73
2021/04/18 09:03:58;;;;;;;17.75;10.30;;;10.00;99.90;;;;;;5045456;28;20044;-74
2021/04/18 09:06:32;;;;;;;19.20;11.13;;;9.80;99.90;;;;;;5049405;28;20455;-74
2021/04/18 09:08:58;;;;;;;19.35;10.82;;;9.70;99.90;;;;;;5050381;28;20036;-74
2021/04/18 09:11:24;;;;;;;19.35;9.93;;;9.60;99.90;;;;;;5049075;28;20116;-73
2021/04/18 09:13:58;;;;;;;19.08;9.88;;;9.50;99.90;;;;;;5043277;28;20044;-73
2021/04/18 09:16:31;;;;;;;15.48;9.70;;;9.40;99.90;;;;;;5047842;28;20040;-73
2021/04/18 09:19:21;;;;;;;16.80;9.77;;;9.50;99.90;;;;;;5034384;28;20033;-73
2021/04/18 09:22:24;;;;;;;15.32;9.02;;;9.60;99.90;;;;;;5040315;28;20024;-73
2021/04/18 09:24:54;;;;;;;14.27;8.73;;;9.80;99.90;;;;;;5040489;28;20495;-74
2021/04/18 09:27:25;;;;;;;16.20;8.45;;;10.00;99.90;;;;;;5040308;28;20040;-74
2021/04/18 09:29:52;;;;;;;13.95;8.38;;;10.00;99.90;;;;;;5039352;28;20048;-74
2021/04/18 09:32:20;;;;;;;14.43;8.32;;;10.20;99.90;;;;;;5046264;28;20037;-74
2021/04/18 09:34:47;;;;;;;14.90;9.15;;;10.50;99.90;;;;;;5042993;28;20026;-73
2021/04/18 09:37:19;;;;;;;20.13;9.00;;;10.60;99.90;;;;;;5034797;28;20486;-74
2021/04/18 09:39:51;;;;;;;14.63;8.48;;;10.60;99.90;;;;;;5031454;28;20032;-74
2021/04/18 09:42:18;;;;;;;12.88;7.60;;;10.50;99.90;;;;;;5039563;28;20064;-74
2021/04/18 09:44:45;;;;;;;14.25;8.15;;;10.40;99.90;;;;;;5040241;28;20025;-73
2021/04/18 09:47:20;;;;;;;13.77;8.05;;;10.30;99.90;;;;;;5037303;28;20029;-74
2021/04/18 09:49:47;;;;;;;12.23;8.13;;;10.10;99.90;;;;;;5042389;28;20086;-74
2021/04/18 09:52:36;;;;;;;13.10;7.38;;;10.10;99.90;;;;;;5044409;28;20539;-74
2021/04/18 09:55:16;;;;;;;12.77;7.35;;;10.00;99.90;;;;;;5037643;28;20078;-73
2021/04/18 09:57:44;;;;;;;12.40;7.90;;;10.00;99.90;;;;;;5037450;28;20060;-74
2021/04/18 10:00:18;;;;;;;13.82;7.88;;;10.00;99.90;;;;;;5040300;28;20594;-74
2021/04/18 10:02:58;;;;;;;13.13;8.52;;;10.00;99.90;;;;;;5039710;28;20090;-74
2021/04/18 10:05:24;;;;;;;16.30;9.23;;;10.10;99.90;;;;;;5044312;28;20037;-74
2021/04/18 10:07:50;;;;;;;13.73;8.25;;;10.20;99.90;;;;;;5041852;28;20029;-74
2021/04/18 10:10:31;;;;;;;17.77;9.60;;;10.20;99.90;;;;;;5044605;28;20029;-74
2021/04/18 10:12:58;;;;;;;19.05;9.65;;;10.20;99.90;;;;;;5045512;28;20411;-74
2021/04/18 10:15:24;;;;;;;15.60;8.73;;;10.30;99.90;;;;;;5050011;28;20059;-75
2021/04/18 10:17:50;;;;;;;14.75;7.97;;;10.20;99.90;;;;;;5048699;28;20057;-74
2021/04/18 10:20:27;;;;;;;13.73;7.97;;;10.20;99.90;;;;;;5049444;28;20025;-74
2021/04/18 10:23:07;;;;;;;15.00;8.00;;;10.30;99.90;;;;;;5049272;28;20025;-74
2021/04/18 10:25:34;;;;;;;11.43;7.45;;;10.40;99.90;;;;;;5043003;28;20023;-74
2021/04/18 10:28:00;;;;;;;14.13;8.40;;;10.60;99.90;;;;;;5046695;28;20083;-73
2021/04/18 10:30:27;;;;;;;12.82;7.90;;;10.70;99.90;;;;;;5046733;28;20601;-73
2021/04/18 10:32:53;;;;;;;21.05;8.48;;;10.90;99.90;;;;;;5045936;28;20100;-73
2021/04/18 10:35:19;;;;;;;16.42;8.18;;;11.00;99.90;;;;;;5049847;28;20140;-73
2021/04/18 10:37:45;;;;;;;11.93;7.88;;;11.20;99.90;;;;;;5048725;28;20029;-73
2021/04/18 10:40:12;;;;;;;12.75;7.68;;;11.30;99.90;;;;;;5047894;28;20395;-73
2021/04/18 10:42:38;;;;;;;11.20;7.45;;;11.40;99.90;;;;;;5048738;28;20391;-73
2021/04/18 10:45:05;;;;;;;13.95;7.35;;;11.30;99.90;;;;;;5049621;28;20037;-73
2021/04/18 10:47:30;;;;;;;12.55;7.82;;;11.40;99.90;;;;;;5048194;28;20032;-73
2021/04/18 10:49:57;;;;;;;13.23;7.72;;;11.40;99.90;;;;;;5049312;28;20021;-73
2021/04/18 10:52:23;;;;;;;13.52;7.20;;;11.40;99.90;;;;;;5048222;28;20392;-73
2021/04/18 10:54:49;;;;;;;10.25;7.18;;;11.40;99.90;;;;;;5050148;28;20033;-73
2021/04/18 10:57:14;;;;;;;14.52;7.25;;;11.30;99.90;;;;;;5046279;28;20111;-74
2021/04/18 10:59:40;;;;;;;12.75;6.95;;;11.30;99.90;;;;;;5043119;28;20029;-73
2021/04/18 11:02:06;;;;;;;11.90;7.53;;;11.20;99.90;;;;;;5038866;28;20064;-73
2021/04/18 11:04:31;;;;;;;14.80;7.75;;;11.20;99.90;;;;;;5036000;28;20017;-73
2021/04/18 11:06:57;;;;;;;16.25;8.30;;;11.10;99.90;;;;;;5041149;28;20507;-72
2021/04/18 11:09:23;;;;;;;14.80;7.35;;;11.20;99.90;;;;;;5045732;28;20033;-74
2021/04/18 11:11:49;;;;;;;13.55;7.65;;;11.20;99.90;;;;;;5045666;28;20114;-74
2021/04/18 11:14:15;;;;;;;15.27;7.68;;;11.20;99.90;;;;;;5041503;28;20037;-73
2021/04/18 11:16:40;;;;;;;12.23;7.32;;;11.20;99.90;;;;;;5039670;28;20026;-73
2021/04/18 11:19:06;;;;;;;13.57;7.13;;;11.30;99.90;;;;;;5047595;28;20044;-73
2021/04/18 11:21:32;;;;;;;14.52;7.15;;;11.40;99.90;;;;;;5041713;28;20032;-73
2021/04/18 11:23:58;;;;;;;14.95;8.65;;;11.50;99.90;;;;;;5041953;28;20116;-72
2021/04/18 11:26:25;;;;;;;15.23;8.25;;;11.50;99.90;;;;;;5046524;28;20484;-72
2021/04/18 11:28:51;;;;;;;14.73;7.88;;;11.30;99.90;;;;;;5049419;28;20024;-73
2021/04/18 11:31:17;;;;;;;12.60;7.47;;;11.10;99.90;;;;;;5047930;28;20484;-73
2021/04/18 11:33:43;;;;;;;16.45;7.97;;;11.00;99.90;;;;;;5049173;28;20487;-72
2021/04/18 11:36:09;;;;;;;15.18;8.02;;;10.90;99.90;;;;;;5047634;28;20093;-73
2021/04/18 11:38:35;;;;;;;12.48;7.50;;;11.10;99.90;;;;;;5027403;28;20040;-73
2021/04/18 11:41:01;;;;;;;15.02;7.95;;;11.20;99.90;;;;;;5043421;28;20037;-73
2021/04/18 11:43:27;;;;;;;12.70;7.95;;;11.40;99.90;;;;;;5043885;28;20033;-73
2021/04/18 11:45:53;;;;;;;15.23;8.45;;;11.70;99.90;;;;;;5044006;28;20031;-72
2021/04/18 11:48:20;;;;;;;12.77;7.32;;;11.80;99.90;;;;;;5046908;28;20032;-73
2021/04/18 11:50:45;;;;;;;14.70;8.02;;;11.70;99.90;;;;;;5044582;28;20075;-73
2021/04/18 11:53:11;;;;;;;14.27;7.72;;;11.80;99.90;;;;;;5047089;28;20029;-72
2021/04/18 11:55:37;;;;;;;10.00;7.10;;;11.80;99.90;;;;;;5044443;28;20034;-73
2021/04/18 11:58:04;;;;;;;14.85;8.35;;;11.80;99.90;;;;;;5039382;28;20084;-72
2021/04/18 12:00:30;;;;;;;12.68;7.00;;;11.70;99.90;;;;;;5043713;28;20032;-73
2021/04/18 12:02:56;;;;;;;12.18;7.00;;;11.60;99.90;;;;;;5043989;28;20029;-73
2021/04/18 12:05:21;;;;;;;14.23;7.85;;;11.50;99.90;;;;;;5042809;28;20033;-73
2021/04/18 12:07:47;;;;;;;12.38;7.10;;;11.20;99.90;;;;;;5036329;28;20502;-73
2021/04/18 12:10:13;;;;;;;12.05;7.38;;;11.00;99.90;;;;;;5046540;28;20037;-73
2021/04/18 12:12:40;;;;;;;12.48;6.80;;;10.90;99.90;;;;;;5043525;28;20498;-72
2021/04/18 12:15:09;;;;;;;11.25;6.88;;;10.90;99.90;;;;;;5046470;28;20040;-74
2021/04/18 12:17:36;;;;;;;13.18;6.72;;;10.90;99.90;;;;;;5041359;28;20131;-73
2021/04/18 12:20:04;;;;;;;14.48;7.18;;;10.90;99.90;;;;;;5044757;28;20033;-71
2021/04/18 12:22:31;;;;;;;11.48;6.85;;;10.90;99.90;;;;;;5047534;28;20025;-73
2021/04/18 12:24:56;;;;;;;11.02;6.18;;;10.90;99.90;;;;;;5046521;28;20033;-73
2021/04/18 12:27:22;;;;;;;9.43;6.68;;;10.90;99.90;;;;;;5047476;28;20040;-72
2021/04/18 12:29:48;;;;;;;12.70;7.15;;;10.90;99.90;;;;;;5045417;28;20753;-73
2021/04/18 12:32:14;;;;;;;11.65;6.50;;;10.90;99.90;;;;;;5046751;28;20025;-73
2021/04/18 12:34:39;;;;;;;13.27;6.57;;;10.90;99.90;;;;;;5048262;28;20112;-73
2021/04/18 12:37:05;;;;;;;10.98;6.20;;;10.90;99.90;;;;;;5046797;28;20092;-72
2021/04/18 12:39:31;;;;;;;10.18;5.97;;;10.90;99.90;;;;;;5038973;28;20029;-73
2021/04/18 12:41:56;;;;;;;15.40;7.05;;;11.00;99.90;;;;;;5039005;28;20078;-73
2021/04/18 12:44:23;;;;;;;14.43;7.55;;;11.10;99.90;;;;;;5040110;28;20171;-73
2021/04/18 12:46:48;;;;;;;9.30;6.25;;;11.10;99.90;;;;;;5039339;28;20531;-73
2021/04/18 12:49:14;;;;;;;12.35;6.90;;;11.10;99.90;;;;;;5051692;28;20451;-72
2021/04/18 12:51:40;;;;;;;7.78;5.57;;;11.20;99.90;;;;;;5042495;28;20087;-73
2021/04/18 12:54:07;;;;;;;13.32;7.07;;;11.30;99.90;;;;;;5045686;28;20029;-73
2021/04/18 12:56:34;;;;;;;11.95;6.38;;;11.40;99.90;;;;;;5045179;28;20036;-72